KDPG/DPG METAR and TAF weather

Enter ICAO airport designator
Station Type Date Time Source
KDPG METAR 2019/05/21 19:58 UTC NOAA

KDPG 211958Z 05006KT 25SM SCT027 BKN034 OVC046 09/04 A2966 RMK SLP026 RAB17E23 P0000 T00870040


Station Type Date Time Source
KDPG Decoded METAR 2019/05/21 19:58 UTC NOAA

Dugway Proving Grounds, UT, United States (KDPG) 40-10N 112-56W 1325M
May 21, 2019 - 03:58 PM EDT / 2019.05.21 1958 UTC
Wind: from the NE (050 degrees) at 7 MPH (6 KT):0
Visibility: 25 mile(s):0
Sky conditions: overcast
Precipitation last hour: A trace
Temperature: 47.7 F (8.7 C)
Dew Point: 39.2 F (4.0 C)
Relative Humidity: 72%
Pressure (altimeter): 29.66 in. Hg (1004 hPa)
ob: KDPG 211958Z 05006KT 25SM SCT027 BKN034 OVC046 09/04 A2966 RMK SLP026 RAB17E23 P0000 T00870040
cycle: 20

Station Type Date Time Source
KDPG TAF UTC NOAA

Error!

Example: see airport list